sensor_id;sensor_type;location;lat;lon;timestamp;P1;durP1;ratioP1;P2;durP2;ratioP2
17727;SDS011;8984;49.268;12.302;2022-08-19T00:02:00;18.65;;;16.70;;
17727;SDS011;8984;49.268;12.302;2022-08-19T00:04:29;25.35;;;19.67;;
17727;SDS011;8984;49.268;12.302;2022-08-19T00:06:59;19.40;;;17.30;;
17727;SDS011;8984;49.268;12.302;2022-08-19T00:09:27;18.95;;;16.20;;
17727;SDS011;8984;49.268;12.302;2022-08-19T00:11:56;22.48;;;20.02;;
17727;SDS011;8984;49.268;12.302;2022-08-19T00:14:24;19.63;;;17.33;;
17727;SDS011;8984;49.268;12.302;2022-08-19T00:16:56;28.25;;;22.55;;
17727;SDS011;8984;49.268;12.302;2022-08-19T00:19:23;20.42;;;18.27;;
17727;SDS011;8984;49.268;12.302;2022-08-19T00:21:50;20.92;;;18.80;;
17727;SDS011;8984;49.268;12.302;2022-08-19T00:24:17;20.80;;;17.98;;
17727;SDS011;8984;49.268;12.302;2022-08-19T00:26:44;23.27;;;19.20;;
17727;SDS011;8984;49.268;12.302;2022-08-19T00:29:14;19.13;;;17.00;;
17727;SDS011;8984;49.268;12.302;2022-08-19T00:31:43;20.15;;;18.15;;
17727;SDS011;8984;49.268;12.302;2022-08-19T00:34:10;22.25;;;18.55;;
17727;SDS011;8984;49.268;12.302;2022-08-19T00:36:38;20.33;;;18.23;;
17727;SDS011;8984;49.268;12.302;2022-08-19T00:39:05;24.35;;;21.52;;
17727;SDS011;8984;49.268;12.302;2022-08-19T00:41:32;24.85;;;21.90;;
17727;SDS011;8984;49.268;12.302;2022-08-19T00:44:00;20.52;;;17.50;;
17727;SDS011;8984;49.268;12.302;2022-08-19T00:46:31;18.20;;;16.20;;
17727;SDS011;8984;49.268;12.302;2022-08-19T00:49:05;21.55;;;19.25;;
17727;SDS011;8984;49.268;12.302;2022-08-19T00:51:35;24.77;;;21.52;;
17727;SDS011;8984;49.268;12.302;2022-08-19T00:54:03;20.90;;;18.70;;
17727;SDS011;8984;49.268;12.302;2022-08-19T00:56:30;23.95;;;20.58;;
17727;SDS011;8984;49.268;12.302;2022-08-19T00:58:58;20.95;;;18.40;;
17727;SDS011;8984;49.268;12.302;2022-08-19T01:01:26;22.50;;;19.67;;
17727;SDS011;8984;49.268;12.302;2022-08-19T01:03:54;20.10;;;17.80;;
17727;SDS011;8984;49.268;12.302;2022-08-19T01:06:21;27.80;;;20.17;;
17727;SDS011;8984;49.268;12.302;2022-08-19T01:08:48;20.00;;;17.95;;
17727;SDS011;8984;49.268;12.302;2022-08-19T01:11:15;21.00;;;17.30;;
17727;SDS011;8984;49.268;12.302;2022-08-19T01:13:42;20.15;;;18.05;;
17727;SDS011;8984;49.268;12.302;2022-08-19T01:16:10;18.75;;;16.70;;
17727;SDS011;8984;49.268;12.302;2022-08-19T01:18:39;20.25;;;18.15;;
17727;SDS011;8984;49.268;12.302;2022-08-19T01:21:11;19.35;;;17.45;;
17727;SDS011;8984;49.268;12.302;2022-08-19T01:23:45;18.00;;;15.95;;
17727;SDS011;8984;49.268;12.302;2022-08-19T01:26:13;17.02;;;15.25;;
17727;SDS011;8984;49.268;12.302;2022-08-19T01:28:42;19.95;;;17.65;;
17727;SDS011;8984;49.268;12.302;2022-08-19T01:31:12;19.42;;;17.42;;
17727;SDS011;8984;49.268;12.302;2022-08-19T01:33:40;22.27;;;19.83;;
17727;SDS011;8984;49.268;12.302;2022-08-19T01:36:08;17.52;;;15.30;;
17727;SDS011;8984;49.268;12.302;2022-08-19T01:38:38;23.13;;;18.20;;
17727;SDS011;8984;49.268;12.302;2022-08-19T01:41:09;19.50;;;16.13;;
17727;SDS011;8984;49.268;12.302;2022-08-19T01:43:36;18.60;;;16.67;;
17727;SDS011;8984;49.268;12.302;2022-08-19T01:46:04;19.80;;;17.65;;
17727;SDS011;8984;49.268;12.302;2022-08-19T01:48:34;19.10;;;17.10;;
17727;SDS011;8984;49.268;12.302;2022-08-19T01:51:04;18.00;;;16.10;;
17727;SDS011;8984;49.268;12.302;2022-08-19T01:53:32;17.40;;;15.55;;
17727;SDS011;8984;49.268;12.302;2022-08-19T01:56:00;17.95;;;15.93;;
17727;SDS011;8984;49.268;12.302;2022-08-19T01:58:30;19.48;;;17.48;;
17727;SDS011;8984;49.268;12.302;2022-08-19T02:01:01;19.10;;;17.10;;
17727;SDS011;8984;49.268;12.302;2022-08-19T02:03:28;18.42;;;16.58;;
17727;SDS011;8984;49.268;12.302;2022-08-19T02:05:55;18.58;;;16.58;;
17727;SDS011;8984;49.268;12.302;2022-08-19T02:08:27;19.45;;;16.25;;
17727;SDS011;8984;49.268;12.302;2022-08-19T02:10:55;20.42;;;17.90;;
17727;SDS011;8984;49.268;12.302;2022-08-19T02:13:23;15.45;;;13.88;;
17727;SDS011;8984;49.268;12.302;2022-08-19T02:15:52;18.17;;;16.27;;
17727;SDS011;8984;49.268;12.302;2022-08-19T02:18:19;17.58;;;15.77;;
17727;SDS011;8984;49.268;12.302;2022-08-19T02:20:46;18.80;;;17.00;;
17727;SDS011;8984;49.268;12.302;2022-08-19T02:23:13;22.83;;;19.30;;
17727;SDS011;8984;49.268;12.302;2022-08-19T02:25:41;20.33;;;16.98;;
17727;SDS011;8984;49.268;12.302;2022-08-19T02:28:09;18.75;;;15.95;;
17727;SDS011;8984;49.268;12.302;2022-08-19T02:30:36;18.98;;;17.00;;
17727;SDS011;8984;49.268;12.302;2022-08-19T02:33:05;16.83;;;15.13;;
17727;SDS011;8984;49.268;12.302;2022-08-19T02:35:32;19.38;;;17.30;;
17727;SDS011;8984;49.268;12.302;2022-08-19T02:37:59;18.38;;;16.48;;
17727;SDS011;8984;49.268;12.302;2022-08-19T02:40:47;15.02;;;13.63;;
17727;SDS011;8984;49.268;12.302;2022-08-19T02:43:16;16.67;;;14.52;;
17727;SDS011;8984;49.268;12.302;2022-08-19T02:45:44;18.65;;;16.65;;
17727;SDS011;8984;49.268;12.302;2022-08-19T02:48:14;20.10;;;18.00;;
17727;SDS011;8984;49.268;12.302;2022-08-19T02:50:42;17.92;;;15.85;;
17727;SDS011;8984;49.268;12.302;2022-08-19T02:53:09;20.08;;;18.08;;
17727;SDS011;8984;49.268;12.302;2022-08-19T02:55:41;17.50;;;15.75;;
17727;SDS011;8984;49.268;12.302;2022-08-19T02:58:09;16.30;;;14.63;;
17727;SDS011;8984;49.268;12.302;2022-08-19T03:00:36;15.30;;;13.80;;
17727;SDS011;8984;49.268;12.302;2022-08-19T03:03:08;16.00;;;14.40;;
17727;SDS011;8984;49.268;12.302;2022-08-19T03:05:37;17.02;;;14.82;;
17727;SDS011;8984;49.268;12.302;2022-08-19T03:08:05;15.18;;;13.40;;
17727;SDS011;8984;49.268;12.302;2022-08-19T03:10:39;15.80;;;14.23;;
17727;SDS011;8984;49.268;12.302;2022-08-19T03:13:09;15.63;;;14.13;;
17727;SDS011;8984;49.268;12.302;2022-08-19T03:15:38;16.10;;;14.50;;
17727;SDS011;8984;49.268;12.302;2022-08-19T03:18:06;17.10;;;15.40;;
17727;SDS011;8984;49.268;12.302;2022-08-19T03:20:33;16.00;;;14.02;;
17727;SDS011;8984;49.268;12.302;2022-08-19T03:23:01;14.50;;;13.02;;
17727;SDS011;8984;49.268;12.302;2022-08-19T03:25:28;15.55;;;13.90;;
17727;SDS011;8984;49.268;12.302;2022-08-19T03:27:55;15.35;;;13.85;;
17727;SDS011;8984;49.268;12.302;2022-08-19T03:30:22;17.70;;;15.35;;
17727;SDS011;8984;49.268;12.302;2022-08-19T03:32:49;15.15;;;13.55;;
17727;SDS011;8984;49.268;12.302;2022-08-19T03:35:16;15.20;;;13.70;;
17727;SDS011;8984;49.268;12.302;2022-08-19T03:37:43;15.10;;;13.60;;
17727;SDS011;8984;49.268;12.302;2022-08-19T03:40:11;16.15;;;13.88;;
17727;SDS011;8984;49.268;12.302;2022-08-19T03:42:38;13.55;;;12.15;;
17727;SDS011;8984;49.268;12.302;2022-08-19T03:45:06;13.73;;;12.43;;
17727;SDS011;8984;49.268;12.302;2022-08-19T03:47:35;14.20;;;12.75;;
17727;SDS011;8984;49.268;12.302;2022-08-19T03:50:03;13.40;;;12.07;;
17727;SDS011;8984;49.268;12.302;2022-08-19T03:52:31;13.48;;;11.85;;
17727;SDS011;8984;49.268;12.302;2022-08-19T03:54:58;15.40;;;13.73;;
17727;SDS011;8984;49.268;12.302;2022-08-19T03:57:27;12.38;;;11.18;;
17727;SDS011;8984;49.268;12.302;2022-08-19T03:59:53;12.95;;;11.63;;
17727;SDS011;8984;49.268;12.302;2022-08-19T04:02:20;14.75;;;13.25;;
17727;SDS011;8984;49.268;12.302;2022-08-19T04:04:47;14.45;;;13.05;;
17727;SDS011;8984;49.268;12.302;2022-08-19T04:07:14;13.57;;;12.18;;
17727;SDS011;8984;49.268;12.302;2022-08-19T04:09:43;16.55;;;14.95;;
17727;SDS011;8984;49.268;12.302;2022-08-19T04:12:10;14.73;;;13.27;;
17727;SDS011;8984;49.268;12.302;2022-08-19T04:14:38;18.27;;;14.20;;
17727;SDS011;8984;49.268;12.302;2022-08-19T04:17:05;15.80;;;14.10;;
17727;SDS011;8984;49.268;12.302;2022-08-19T04:19:33;16.45;;;14.77;;
17727;SDS011;8984;49.268;12.302;2022-08-19T04:22:01;13.27;;;11.88;;
17727;SDS011;8984;49.268;12.302;2022-08-19T04:24:29;15.82;;;11.73;;
17727;SDS011;8984;49.268;12.302;2022-08-19T04:26:56;12.20;;;11.00;;
17727;SDS011;8984;49.268;12.302;2022-08-19T04:29:23;14.63;;;13.23;;
17727;SDS011;8984;49.268;12.302;2022-08-19T04:31:53;14.48;;;12.98;;
17727;SDS011;8984;49.268;12.302;2022-08-19T04:34:22;12.77;;;11.30;;
17727;SDS011;8984;49.268;12.302;2022-08-19T04:36:51;13.85;;;12.45;;
17727;SDS011;8984;49.268;12.302;2022-08-19T04:39:21;11.27;;;10.18;;
17727;SDS011;8984;49.268;12.302;2022-08-19T04:42:10;14.00;;;12.55;;
17727;SDS011;8984;49.268;12.302;2022-08-19T04:44:54;20.38;;;14.45;;
17727;SDS011;8984;49.268;12.302;2022-08-19T04:47:22;15.95;;;14.38;;
17727;SDS011;8984;49.268;12.302;2022-08-19T04:49:49;11.65;;;10.57;;
17727;SDS011;8984;49.268;12.302;2022-08-19T04:52:16;13.35;;;11.95;;
17727;SDS011;8984;49.268;12.302;2022-08-19T04:54:43;13.30;;;12.00;;
17727;SDS011;8984;49.268;12.302;2022-08-19T04:57:10;13.15;;;11.38;;
17727;SDS011;8984;49.268;12.302;2022-08-19T04:59:37;13.63;;;12.00;;
17727;SDS011;8984;49.268;12.302;2022-08-19T05:02:06;13.50;;;12.18;;
17727;SDS011;8984;49.268;12.302;2022-08-19T05:04:34;14.00;;;12.35;;
17727;SDS011;8984;49.268;12.302;2022-08-19T05:07:04;12.73;;;11.52;;
17727;SDS011;8984;49.268;12.302;2022-08-19T05:09:31;13.57;;;12.23;;
17727;SDS011;8984;49.268;12.302;2022-08-19T05:11:57;14.15;;;12.73;;
17727;SDS011;8984;49.268;12.302;2022-08-19T05:14:25;11.85;;;10.57;;
17727;SDS011;8984;49.268;12.302;2022-08-19T05:16:51;14.68;;;13.20;;
17727;SDS011;8984;49.268;12.302;2022-08-19T05:19:18;13.75;;;12.45;;
17727;SDS011;8984;49.268;12.302;2022-08-19T05:22:04;13.35;;;11.98;;
17727;SDS011;8984;49.268;12.302;2022-08-19T05:24:48;11.95;;;10.82;;
17727;SDS011;8984;49.268;12.302;2022-08-19T05:27:15;10.88;;;9.60;;
17727;SDS011;8984;49.268;12.302;2022-08-19T05:29:42;11.27;;;9.45;;
17727;SDS011;8984;49.268;12.302;2022-08-19T05:32:08;10.85;;;9.80;;
17727;SDS011;8984;49.268;12.302;2022-08-19T05:34:35;11.68;;;10.48;;
17727;SDS011;8984;49.268;12.302;2022-08-19T05:37:04;10.52;;;9.52;;
17727;SDS011;8984;49.268;12.302;2022-08-19T05:39:33;10.05;;;9.05;;
17727;SDS011;8984;49.268;12.302;2022-08-19T05:42:02;10.20;;;9.27;;
17727;SDS011;8984;49.268;12.302;2022-08-19T05:44:32;10.45;;;9.45;;
17727;SDS011;8984;49.268;12.302;2022-08-19T05:47:01;9.93;;;8.57;;
17727;SDS011;8984;49.268;12.302;2022-08-19T05:49:30;9.30;;;8.35;;
17727;SDS011;8984;49.268;12.302;2022-08-19T05:51:58;9.00;;;7.97;;
17727;SDS011;8984;49.268;12.302;2022-08-19T05:54:30;9.85;;;8.75;;
17727;SDS011;8984;49.268;12.302;2022-08-19T05:56:56;9.02;;;7.70;;
17727;SDS011;8984;49.268;12.302;2022-08-19T05:59:23;8.77;;;7.93;;
17727;SDS011;8984;49.268;12.302;2022-08-19T06:01:51;9.45;;;8.55;;
17727;SDS011;8984;49.268;12.302;2022-08-19T06:04:19;10.05;;;9.15;;
17727;SDS011;8984;49.268;12.302;2022-08-19T06:06:47;10.38;;;9.32;;
17727;SDS011;8984;49.268;12.302;2022-08-19T06:09:16;10.77;;;9.77;;
17727;SDS011;8984;49.268;12.302;2022-08-19T06:11:46;10.57;;;9.57;;
17727;SDS011;8984;49.268;12.302;2022-08-19T06:14:15;9.93;;;8.77;;
17727;SDS011;8984;49.268;12.302;2022-08-19T06:16:45;9.70;;;8.77;;
17727;SDS011;8984;49.268;12.302;2022-08-19T06:19:13;8.90;;;8.00;;
17727;SDS011;8984;49.268;12.302;2022-08-19T06:21:43;10.30;;;8.77;;
17727;SDS011;8984;49.268;12.302;2022-08-19T06:24:13;10.32;;;9.30;;
17727;SDS011;8984;49.268;12.302;2022-08-19T06:26:43;8.00;;;7.30;;
17727;SDS011;8984;49.268;12.302;2022-08-19T06:29:13;8.43;;;7.60;;
17727;SDS011;8984;49.268;12.302;2022-08-19T06:31:42;9.82;;;8.27;;
17727;SDS011;8984;49.268;12.302;2022-08-19T06:34:10;9.13;;;7.20;;
17727;SDS011;8984;49.268;12.302;2022-08-19T06:36:38;8.93;;;8.07;;
17727;SDS011;8984;49.268;12.302;2022-08-19T06:39:07;8.98;;;7.97;;
17727;SDS011;8984;49.268;12.302;2022-08-19T06:41:36;17.42;;;9.23;;
17727;SDS011;8984;49.268;12.302;2022-08-19T06:44:06;13.95;;;9.18;;
17727;SDS011;8984;49.268;12.302;2022-08-19T06:46:33;88.28;;;24.15;;
17727;SDS011;8984;49.268;12.302;2022-08-19T06:49:00;12.75;;;8.90;;
17727;SDS011;8984;49.268;12.302;2022-08-19T06:51:27;11.05;;;8.90;;
17727;SDS011;8984;49.268;12.302;2022-08-19T06:53:55;9.43;;;7.10;;
17727;SDS011;8984;49.268;12.302;2022-08-19T06:56:23;17.92;;;8.98;;
17727;SDS011;8984;49.268;12.302;2022-08-19T06:58:55;12.45;;;8.27;;
17727;SDS011;8984;49.268;12.302;2022-08-19T07:01:24;11.23;;;8.55;;
17727;SDS011;8984;49.268;12.302;2022-08-19T07:03:50;17.42;;;9.10;;
17727;SDS011;8984;49.268;12.302;2022-08-19T07:06:17;13.85;;;7.78;;
17727;SDS011;8984;49.268;12.302;2022-08-19T07:08:45;7.45;;;6.75;;
17727;SDS011;8984;49.268;12.302;2022-08-19T07:11:15;8.00;;;7.20;;
17727;SDS011;8984;49.268;12.302;2022-08-19T07:13:43;12.80;;;7.88;;
17727;SDS011;8984;49.268;12.302;2022-08-19T07:16:18;7.70;;;6.80;;
17727;SDS011;8984;49.268;12.302;2022-08-19T07:18:47;7.32;;;6.63;;
17727;SDS011;8984;49.268;12.302;2022-08-19T07:21:18;7.65;;;6.70;;
17727;SDS011;8984;49.268;12.302;2022-08-19T07:23:47;6.30;;;5.70;;
17727;SDS011;8984;49.268;12.302;2022-08-19T07:26:16;7.07;;;6.28;;
17727;SDS011;8984;49.268;12.302;2022-08-19T07:28:45;8.95;;;6.70;;
17727;SDS011;8984;49.268;12.302;2022-08-19T07:31:13;7.97;;;5.95;;
17727;SDS011;8984;49.268;12.302;2022-08-19T07:33:43;7.90;;;6.05;;
17727;SDS011;8984;49.268;12.302;2022-08-19T07:36:13;7.13;;;6.43;;
17727;SDS011;8984;49.268;12.302;2022-08-19T07:38:42;6.45;;;5.63;;
17727;SDS011;8984;49.268;12.302;2022-08-19T07:41:14;6.47;;;5.88;;
17727;SDS011;8984;49.268;12.302;2022-08-19T07:43:42;8.10;;;6.97;;
17727;SDS011;8984;49.268;12.302;2022-08-19T07:46:10;7.38;;;6.47;;
17727;SDS011;8984;49.268;12.302;2022-08-19T07:48:38;7.95;;;6.05;;
17727;SDS011;8984;49.268;12.302;2022-08-19T07:51:06;7.25;;;6.55;;
17727;SDS011;8984;49.268;12.302;2022-08-19T07:53:36;7.93;;;6.60;;
17727;SDS011;8984;49.268;12.302;2022-08-19T07:56:03;8.32;;;7.53;;
17727;SDS011;8984;49.268;12.302;2022-08-19T07:58:31;8.82;;;7.93;;
17727;SDS011;8984;49.268;12.302;2022-08-19T08:00:59;7.80;;;7.00;;
17727;SDS011;8984;49.268;12.302;2022-08-19T08:03:27;8.50;;;7.60;;
17727;SDS011;8984;49.268;12.302;2022-08-19T08:06:08;9.55;;;8.63;;
17727;SDS011;8984;49.268;12.302;2022-08-19T08:08:54;8.43;;;7.60;;
17727;SDS011;8984;49.268;12.302;2022-08-19T08:11:46;7.75;;;6.93;;
17727;SDS011;8984;49.268;12.302;2022-08-19T08:14:16;9.07;;;8.18;;
17727;SDS011;8984;49.268;12.302;2022-08-19T08:16:44;8.55;;;7.70;;
17727;SDS011;8984;49.268;12.302;2022-08-19T08:19:11;7.60;;;6.90;;
17727;SDS011;8984;49.268;12.302;2022-08-19T08:21:40;8.30;;;7.45;;
17727;SDS011;8984;49.268;12.302;2022-08-19T08:24:09;7.53;;;6.82;;
17727;SDS011;8984;49.268;12.302;2022-08-19T08:26:36;9.48;;;7.38;;
17727;SDS011;8984;49.268;12.302;2022-08-19T08:29:03;7.35;;;6.65;;
17727;SDS011;8984;49.268;12.302;2022-08-19T08:31:31;8.35;;;7.22;;
17727;SDS011;8984;49.268;12.302;2022-08-19T08:33:59;6.82;;;6.18;;
17727;SDS011;8984;49.268;12.302;2022-08-19T08:36:25;7.72;;;6.88;;
17727;SDS011;8984;49.268;12.302;2022-08-19T08:38:53;6.72;;;6.13;;
17727;SDS011;8984;49.268;12.302;2022-08-19T08:41:25;10.98;;;6.45;;
17727;SDS011;8984;49.268;12.302;2022-08-19T08:43:57;6.65;;;5.95;;
17727;SDS011;8984;49.268;12.302;2022-08-19T08:46:25;6.35;;;5.75;;
17727;SDS011;8984;49.268;12.302;2022-08-19T08:48:59;6.85;;;6.25;;
17727;SDS011;8984;49.268;12.302;2022-08-19T08:51:33;6.80;;;6.10;;
17727;SDS011;8984;49.268;12.302;2022-08-19T08:54:04;6.00;;;5.35;;
17727;SDS011;8984;49.268;12.302;2022-08-19T08:56:34;6.03;;;5.40;;
17727;SDS011;8984;49.268;12.302;2022-08-19T08:59:01;6.47;;;5.88;;
17727;SDS011;8984;49.268;12.302;2022-08-19T09:01:32;6.07;;;5.55;;
17727;SDS011;8984;49.268;12.302;2022-08-19T09:03:59;5.57;;;5.03;;
17727;SDS011;8984;49.268;12.302;2022-08-19T09:06:27;5.53;;;5.03;;
17727;SDS011;8984;49.268;12.302;2022-08-19T09:08:59;5.93;;;5.40;;
17727;SDS011;8984;49.268;12.302;2022-08-19T09:11:37;6.72;;;6.03;;
17727;SDS011;8984;49.268;12.302;2022-08-19T09:14:23;8.70;;;6.03;;
17727;SDS011;8984;49.268;12.302;2022-08-19T09:16:59;6.20;;;5.57;;
17727;SDS011;8984;49.268;12.302;2022-08-19T09:19:28;6.03;;;5.43;;
17727;SDS011;8984;49.268;12.302;2022-08-19T09:21:56;7.03;;;6.43;;
17727;SDS011;8984;49.268;12.302;2022-08-19T09:24:25;8.10;;;6.65;;
17727;SDS011;8984;49.268;12.302;2022-08-19T09:26:53;7.68;;;6.75;;
17727;SDS011;8984;49.268;12.302;2022-08-19T09:29:20;7.82;;;7.07;;
17727;SDS011;8984;49.268;12.302;2022-08-19T09:31:47;7.28;;;6.57;;
17727;SDS011;8984;49.268;12.302;2022-08-19T09:34:14;8.77;;;7.88;;
17727;SDS011;8984;49.268;12.302;2022-08-19T09:36:41;9.15;;;7.63;;
17727;SDS011;8984;49.268;12.302;2022-08-19T09:39:08;7.15;;;6.45;;
17727;SDS011;8984;49.268;12.302;2022-08-19T09:41:34;7.15;;;6.45;;
17727;SDS011;8984;49.268;12.302;2022-08-19T09:44:02;9.88;;;6.95;;
17727;SDS011;8984;49.268;12.302;2022-08-19T09:46:29;7.15;;;6.50;;
17727;SDS011;8984;49.268;12.302;2022-08-19T09:48:57;6.40;;;5.60;;
17727;SDS011;8984;49.268;12.302;2022-08-19T09:51:25;5.85;;;5.22;;
17727;SDS011;8984;49.268;12.302;2022-08-19T09:53:54;7.88;;;5.75;;
17727;SDS011;8984;49.268;12.302;2022-08-19T09:56:25;6.20;;;5.60;;
17727;SDS011;8984;49.268;12.302;2022-08-19T09:58:52;6.38;;;5.50;;
17727;SDS011;8984;49.268;12.302;2022-08-19T10:01:20;5.85;;;5.30;;
17727;SDS011;8984;49.268;12.302;2022-08-19T10:03:50;5.80;;;5.20;;
17727;SDS011;8984;49.268;12.302;2022-08-19T10:06:19;7.63;;;6.05;;
17727;SDS011;8984;49.268;12.302;2022-08-19T10:08:48;5.95;;;5.35;;
17727;SDS011;8984;49.268;12.302;2022-08-19T10:11:16;5.45;;;4.95;;
17727;SDS011;8984;49.268;12.302;2022-08-19T10:13:43;6.20;;;5.60;;
17727;SDS011;8984;49.268;12.302;2022-08-19T10:16:11;5.65;;;5.03;;
17727;SDS011;8984;49.268;12.302;2022-08-19T10:18:41;6.28;;;5.68;;
17727;SDS011;8984;49.268;12.302;2022-08-19T10:21:09;7.53;;;5.32;;
17727;SDS011;8984;49.268;12.302;2022-08-19T10:23:39;5.07;;;4.57;;
17727;SDS011;8984;49.268;12.302;2022-08-19T10:26:08;5.28;;;4.78;;
17727;SDS011;8984;49.268;12.302;2022-08-19T10:28:36;7.10;;;5.35;;
17727;SDS011;8984;49.268;12.302;2022-08-19T10:31:04;5.70;;;5.13;;
17727;SDS011;8984;49.268;12.302;2022-08-19T10:33:32;6.15;;;5.55;;
17727;SDS011;8984;49.268;12.302;2022-08-19T10:36:01;6.45;;;5.70;;
17727;SDS011;8984;49.268;12.302;2022-08-19T10:38:28;5.43;;;4.85;;
17727;SDS011;8984;49.268;12.302;2022-08-19T10:40:56;5.70;;;4.97;;
17727;SDS011;8984;49.268;12.302;2022-08-19T10:43:24;5.93;;;5.03;;
17727;SDS011;8984;49.268;12.302;2022-08-19T10:45:52;6.00;;;5.40;;
17727;SDS011;8984;49.268;12.302;2022-08-19T10:48:21;5.75;;;5.20;;
17727;SDS011;8984;49.268;12.302;2022-08-19T10:50:48;6.15;;;4.80;;
17727;SDS011;8984;49.268;12.302;2022-08-19T10:53:33;5.20;;;4.68;;
17727;SDS011;8984;49.268;12.302;2022-08-19T10:56:00;6.10;;;5.50;;
17727;SDS011;8984;49.268;12.302;2022-08-19T10:58:47;5.50;;;5.00;;
17727;SDS011;8984;49.268;12.302;2022-08-19T11:01:14;5.43;;;4.93;;
17727;SDS011;8984;49.268;12.302;2022-08-19T11:03:41;5.60;;;4.88;;
17727;SDS011;8984;49.268;12.302;2022-08-19T11:06:10;5.22;;;4.72;;
17727;SDS011;8984;49.268;12.302;2022-08-19T11:08:41;7.35;;;4.90;;
17727;SDS011;8984;49.268;12.302;2022-08-19T11:11:11;10.02;;;5.40;;
17727;SDS011;8984;49.268;12.302;2022-08-19T11:13:39;6.47;;;5.60;;
17727;SDS011;8984;49.268;12.302;2022-08-19T11:16:08;6.20;;;5.60;;
17727;SDS011;8984;49.268;12.302;2022-08-19T11:18:39;6.03;;;5.43;;
17727;SDS011;8984;49.268;12.302;2022-08-19T11:21:09;6.60;;;4.60;;
17727;SDS011;8984;49.268;12.302;2022-08-19T11:23:40;6.88;;;5.70;;
17727;SDS011;8984;49.268;12.302;2022-08-19T11:26:08;10.27;;;5.32;;
17727;SDS011;8984;49.268;12.302;2022-08-19T11:28:35;6.63;;;5.85;;
17727;SDS011;8984;49.268;12.302;2022-08-19T11:31:08;6.03;;;5.07;;
17727;SDS011;8984;49.268;12.302;2022-08-19T11:33:36;5.60;;;5.05;;
17727;SDS011;8984;49.268;12.302;2022-08-19T11:36:03;6.18;;;5.22;;
17727;SDS011;8984;49.268;12.302;2022-08-19T11:38:34;7.07;;;5.18;;
17727;SDS011;8984;49.268;12.302;2022-08-19T11:41:04;6.72;;;6.00;;
17727;SDS011;8984;49.268;12.302;2022-08-19T11:43:33;6.13;;;5.35;;
17727;SDS011;8984;49.268;12.302;2022-08-19T11:46:03;7.53;;;5.38;;
17727;SDS011;8984;49.268;12.302;2022-08-19T11:48:35;5.68;;;4.90;;
17727;SDS011;8984;49.268;12.302;2022-08-19T11:51:03;6.20;;;4.68;;
17727;SDS011;8984;49.268;12.302;2022-08-19T11:53:32;6.25;;;5.18;;
17727;SDS011;8984;49.268;12.302;2022-08-19T11:56:00;5.53;;;4.93;;
17727;SDS011;8984;49.268;12.302;2022-08-19T11:58:30;5.55;;;5.05;;
17727;SDS011;8984;49.268;12.302;2022-08-19T12:00:57;5.72;;;5.13;;
17727;SDS011;8984;49.268;12.302;2022-08-19T12:03:24;4.70;;;4.30;;
17727;SDS011;8984;49.268;12.302;2022-08-19T12:05:51;5.70;;;4.55;;
17727;SDS011;8984;49.268;12.302;2022-08-19T12:08:18;6.15;;;4.80;;
17727;SDS011;8984;49.268;12.302;2022-08-19T12:10:45;4.85;;;4.40;;
17727;SDS011;8984;49.268;12.302;2022-08-19T12:13:13;5.15;;;4.65;;
17727;SDS011;8984;49.268;12.302;2022-08-19T12:15:44;5.60;;;5.10;;
17727;SDS011;8984;49.268;12.302;2022-08-19T12:18:13;5.88;;;5.28;;
17727;SDS011;8984;49.268;12.302;2022-08-19T12:20:40;6.57;;;4.88;;
17727;SDS011;8984;49.268;12.302;2022-08-19T12:23:09;5.45;;;4.95;;
17727;SDS011;8984;49.268;12.302;2022-08-19T12:25:36;5.95;;;5.30;;
17727;SDS011;8984;49.268;12.302;2022-08-19T12:28:03;5.45;;;4.95;;
17727;SDS011;8984;49.268;12.302;2022-08-19T12:30:31;5.93;;;5.10;;
17727;SDS011;8984;49.268;12.302;2022-08-19T12:32:58;6.25;;;5.00;;
17727;SDS011;8984;49.268;12.302;2022-08-19T12:35:25;5.43;;;4.93;;
17727;SDS011;8984;49.268;12.302;2022-08-19T12:37:52;5.90;;;5.28;;
17727;SDS011;8984;49.268;12.302;2022-08-19T12:40:19;5.22;;;4.72;;
17727;SDS011;8984;49.268;12.302;2022-08-19T12:42:46;8.82;;;5.10;;
17727;SDS011;8984;49.268;12.302;2022-08-19T12:45:14;4.93;;;4.32;;
17727;SDS011;8984;49.268;12.302;2022-08-19T12:47:43;4.82;;;4.32;;
17727;SDS011;8984;49.268;12.302;2022-08-19T12:50:11;5.10;;;4.57;;
17727;SDS011;8984;49.268;12.302;2022-08-19T12:52:38;4.53;;;4.13;;
17727;SDS011;8984;49.268;12.302;2022-08-19T12:55:07;4.90;;;4.40;;
17727;SDS011;8984;49.268;12.302;2022-08-19T12:57:35;4.22;;;3.83;;
17727;SDS011;8984;49.268;12.302;2022-08-19T13:00:05;5.60;;;4.78;;
17727;SDS011;8984;49.268;12.302;2022-08-19T13:02:35;4.63;;;4.15;;
17727;SDS011;8984;49.268;12.302;2022-08-19T13:05:06;4.25;;;3.85;;
17727;SDS011;8984;49.268;12.302;2022-08-19T13:07:34;4.80;;;4.40;;
17727;SDS011;8984;49.268;12.302;2022-08-19T13:10:03;5.10;;;4.60;;
17727;SDS011;8984;49.268;12.302;2022-08-19T13:12:30;5.97;;;4.57;;
17727;SDS011;8984;49.268;12.302;2022-08-19T13:14:57;5.20;;;4.70;;
17727;SDS011;8984;49.268;12.302;2022-08-19T13:17:24;5.00;;;4.50;;
17727;SDS011;8984;49.268;12.302;2022-08-19T13:19:50;4.78;;;4.28;;
17727;SDS011;8984;49.268;12.302;2022-08-19T13:22:19;6.57;;;5.15;;
17727;SDS011;8984;49.268;12.302;2022-08-19T13:24:46;5.53;;;4.75;;
17727;SDS011;8984;49.268;12.302;2022-08-19T13:27:13;5.78;;;5.15;;
17727;SDS011;8984;49.268;12.302;2022-08-19T13:29:40;6.10;;;5.00;;
17727;SDS011;8984;49.268;12.302;2022-08-19T13:32:24;8.82;;;5.55;;
17727;SDS011;8984;49.268;12.302;2022-08-19T13:35:09;8.70;;;4.93;;
17727;SDS011;8984;49.268;12.302;2022-08-19T13:37:37;8.25;;;5.85;;
17727;SDS011;8984;49.268;12.302;2022-08-19T13:40:07;7.45;;;6.35;;
17727;SDS011;8984;49.268;12.302;2022-08-19T13:42:37;8.20;;;6.88;;
17727;SDS011;8984;49.268;12.302;2022-08-19T13:45:04;32.85;;;23.25;;
17727;SDS011;8984;49.268;12.302;2022-08-19T13:47:33;8.70;;;7.80;;
17727;SDS011;8984;49.268;12.302;2022-08-19T13:50:00;7.75;;;6.72;;
17727;SDS011;8984;49.268;12.302;2022-08-19T13:52:28;12.30;;;8.50;;
17727;SDS011;8984;49.268;12.302;2022-08-19T13:54:57;10.57;;;8.30;;
17727;SDS011;8984;49.268;12.302;2022-08-19T13:57:23;10.50;;;8.45;;
17727;SDS011;8984;49.268;12.302;2022-08-19T13:59:50;11.75;;;8.25;;
17727;SDS011;8984;49.268;12.302;2022-08-19T14:02:17;12.85;;;9.18;;
17727;SDS011;8984;49.268;12.302;2022-08-19T14:04:44;12.25;;;9.25;;
17727;SDS011;8984;49.268;12.302;2022-08-19T14:07:10;13.57;;;10.32;;
17727;SDS011;8984;49.268;12.302;2022-08-19T14:09:37;10.60;;;8.98;;
17727;SDS011;8984;49.268;12.302;2022-08-19T14:12:06;14.25;;;9.65;;
17727;SDS011;8984;49.268;12.302;2022-08-19T14:14:35;14.00;;;8.98;;
17727;SDS011;8984;49.268;12.302;2022-08-19T14:17:05;13.07;;;11.00;;
17727;SDS011;8984;49.268;12.302;2022-08-19T14:19:32;9.95;;;8.85;;
17727;SDS011;8984;49.268;12.302;2022-08-19T14:21:59;12.02;;;9.32;;
17727;SDS011;8984;49.268;12.302;2022-08-19T14:24:26;11.48;;;8.27;;
17727;SDS011;8984;49.268;12.302;2022-08-19T14:26:52;12.05;;;9.88;;
17727;SDS011;8984;49.268;12.302;2022-08-19T14:29:21;13.57;;;10.43;;
17727;SDS011;8984;49.268;12.302;2022-08-19T14:31:47;10.75;;;8.70;;
17727;SDS011;8984;49.268;12.302;2022-08-19T14:34:14;10.70;;;9.60;;
17727;SDS011;8984;49.268;12.302;2022-08-19T14:36:41;10.05;;;8.30;;
17727;SDS011;8984;49.268;12.302;2022-08-19T14:39:08;10.02;;;8.73;;
17727;SDS011;8984;49.268;12.302;2022-08-19T14:41:35;12.57;;;9.75;;
17727;SDS011;8984;49.268;12.302;2022-08-19T14:44:02;9.85;;;8.75;;
17727;SDS011;8984;49.268;12.302;2022-08-19T14:46:30;10.63;;;9.52;;